Salton City, California
Current Conditions -  °F | °C
As of 6:53 PM on Monday 20 Oct 2014 (Local Time) from KPSP Reporting Station
Scattered Clouds Scattered Clouds  
Wind Chill: 88°   Ceiling: Unl
Heat Index: 88°   Visibility: 10mi
Dew Point: 50°   Wind: 5mph
Humidity: 27%   Direction: 20°NNE
Pressure: 29.79"   Gusts: NA
Location:  33.69°N, 116.53°W
Report Text: KPSP 210153Z 02004KT 10SM SCT200 31/10 A2979 RMK AO2 SLP085 T03110100
Loading
Personal Weather Stations






























Interactive Weather Map
Tropical Storm Tracking
New forecast layout! Learn more

10-Day Weather Forecast

Advertisements
Track Severe Weather on mobile